Time;durP1;ratioP1;P1;durP2;ratioP2;P2;SDS_P1;SDS_P2;PMS_P1;PMS_P2;Temp;Humidity;BMP_temperature;BMP_pressure;BME280_temperature;BME280_humidity;BME280_pressure;Samples;Min_cycle;Max_cycle;Signal;HPM_P1;HPM_P2
2024/01/06 00:02:22;;;;;;;7.10;5.40;;;2.90;99.90;;;;;;5051864;28;20170;-84
2024/01/06 00:04:48;;;;;;;7.50;4.60;;;2.90;99.90;;;;;;5051725;28;20282;-84
2024/01/06 00:07:19;;;;;;;10.43;5.90;;;2.90;99.90;;;;;;5051714;28;20174;-84
2024/01/06 00:09:45;;;;;;;7.30;4.83;;;2.90;99.90;;;;;;5051965;28;20245;-84
2024/01/06 00:12:10;;;;;;;11.00;5.50;;;2.90;99.90;;;;;;5051633;28;20185;-84
2024/01/06 00:14:36;;;;;;;7.77;4.60;;;2.80;99.90;;;;;;5040840;28;20179;-84
2024/01/06 00:17:13;;;;;;;7.00;4.27;;;2.80;99.90;;;;;;5035047;28;20658;-84
2024/01/06 00:19:38;;;;;;;5.60;4.10;;;2.60;99.90;;;;;;5035139;28;20198;-84
2024/01/06 00:22:04;;;;;;;6.17;3.60;;;2.50;99.90;;;;;;5035390;28;20174;-84
2024/01/06 00:24:29;;;;;;;6.67;3.57;;;2.50;99.90;;;;;;5035245;28;20191;-84
2024/01/06 00:26:55;;;;;;;8.20;3.87;;;2.50;99.90;;;;;;5035140;28;20240;-84
2024/01/06 00:29:21;;;;;;;6.50;3.60;;;2.50;99.90;;;;;;5035116;28;20186;-84
2024/01/06 00:31:46;;;;;;;9.43;4.63;;;2.40;99.90;;;;;;5035167;28;20575;-83
2024/01/06 00:34:12;;;;;;;12.10;4.33;;;2.40;99.90;;;;;;5035319;28;20187;-83
2024/01/06 00:36:38;;;;;;;5.43;3.87;;;2.40;99.90;;;;;;5035251;28;20277;-83
2024/01/06 00:39:04;;;;;;;5.17;3.63;;;2.30;99.90;;;;;;5034933;28;20213;-83
2024/01/06 00:41:30;;;;;;;5.53;3.87;;;2.40;99.90;;;;;;5034814;28;20203;-83
2024/01/06 00:43:55;;;;;;;6.13;3.83;;;2.40;99.90;;;;;;5034881;28;20190;-83
2024/01/06 00:46:21;;;;;;;4.73;3.67;;;2.40;99.90;;;;;;5035475;28;20178;-83
2024/01/06 00:48:46;;;;;;;5.23;3.70;;;2.40;99.90;;;;;;5035099;28;20194;-83
2024/01/06 00:51:12;;;;;;;10.13;3.73;;;2.40;99.90;;;;;;5034656;28;20220;-83
2024/01/06 00:53:56;;;;;;;6.77;3.77;;;2.40;99.90;;;;;;5034741;28;20190;-83
2024/01/06 00:56:22;;;;;;;7.30;3.60;;;2.40;99.90;;;;;;5034844;28;20174;-83
2024/01/06 00:58:48;;;;;;;5.33;3.37;;;2.40;99.90;;;;;;5034529;28;20242;-83
2024/01/06 01:01:13;;;;;;;9.13;3.57;;;2.40;99.90;;;;;;5034599;28;20195;-83
2024/01/06 01:03:39;;;;;;;5.97;3.47;;;2.20;99.90;;;;;;5034823;28;20179;-83
2024/01/06 01:06:04;;;;;;;11.33;3.60;;;2.20;99.90;;;;;;5034623;28;20175;-83
2024/01/06 01:08:30;;;;;;;4.87;3.47;;;2.10;99.90;;;;;;5034580;28;20191;-83
2024/01/06 01:10:56;;;;;;;5.70;3.50;;;2.00;99.90;;;;;;5034006;28;20226;-83
2024/01/06 01:13:22;;;;;;;6.63;3.50;;;2.00;99.90;;;;;;5034208;28;20272;-83
2024/01/06 01:15:53;;;;;;;9.17;3.93;;;2.00;99.90;;;;;;5035552;28;20238;-83
2024/01/06 01:18:19;;;;;;;6.53;3.80;;;1.90;99.90;;;;;;5034680;28;20214;-83
2024/01/06 01:20:44;;;;;;;7.47;3.33;;;2.00;99.90;;;;;;5033978;28;20195;-83
2024/01/06 01:23:10;;;;;;;5.53;3.47;;;2.00;99.90;;;;;;5034105;28;20269;-83
2024/01/06 01:25:36;;;;;;;6.37;3.60;;;2.00;99.90;;;;;;5034173;28;20175;-83
2024/01/06 01:28:01;;;;;;;6.83;3.43;;;1.90;99.90;;;;;;5033793;28;20183;-83
2024/01/06 01:30:27;;;;;;;5.77;3.37;;;1.90;99.90;;;;;;5033751;28;20202;-83
2024/01/06 01:32:53;;;;;;;3.70;3.20;;;2.00;99.90;;;;;;5033819;28;20186;-83
2024/01/06 01:35:19;;;;;;;5.80;2.87;;;2.00;99.90;;;;;;5033725;28;20186;-83
2024/01/06 01:37:44;;;;;;;6.30;2.90;;;2.00;99.90;;;;;;5033982;28;20193;-83
2024/01/06 01:40:10;;;;;;;5.47;2.77;;;2.00;99.90;;;;;;5033691;28;20256;-83
2024/01/06 01:42:37;;;;;;;4.57;2.87;;;1.90;99.90;;;;;;5033589;28;20179;-83
2024/01/06 01:45:03;;;;;;;5.50;2.70;;;2.00;99.90;;;;;;5034413;28;20199;-83
2024/01/06 01:47:29;;;;;;;5.50;2.77;;;2.00;99.90;;;;;;5034970;28;20167;-83
2024/01/06 01:49:56;;;;;;;5.53;3.10;;;1.90;99.90;;;;;;5034075;28;20199;-83
2024/01/06 01:52:22;;;;;;;7.30;3.30;;;2.00;99.90;;;;;;5033431;28;20266;-83
2024/01/06 01:54:48;;;;;;;5.43;2.80;;;2.00;99.90;;;;;;5033359;28;20198;-83
2024/01/06 01:57:15;;;;;;;7.50;3.50;;;2.00;99.90;;;;;;5033491;28;20182;-84
2024/01/06 02:00:20;;;;;;;3.60;3.00;;;2.10;99.90;;;;;;5033353;28;20217;-83
2024/01/06 02:42:13;;;;;;;4.93;3.03;;;1.80;99.90;;;;;;1172045;22;20495;-87
2024/01/06 02:44:53;;;;;;;3.43;2.77;;;1.80;99.90;;;;;;4975289;28;20295;-87
2024/01/06 02:47:18;;;;;;;8.20;2.90;;;1.80;99.90;;;;;;4992807;28;20199;-87
2024/01/06 02:49:44;;;;;;;3.10;2.60;;;1.80;99.90;;;;;;4976886;28;20204;-87
2024/01/06 02:52:10;;;;;;;4.80;2.63;;;1.80;99.90;;;;;;4976935;28;20180;-87
2024/01/06 02:54:35;;;;;;;5.70;2.73;;;1.80;99.90;;;;;;4977056;28;20180;-87
2024/01/06 02:57:07;;;;;;;7.93;3.13;;;1.80;99.90;;;;;;4976533;28;20190;-86
2024/01/06 02:59:38;;;;;;;5.77;3.20;;;1.80;99.90;;;;;;4976638;28;20231;-87
2024/01/06 03:02:03;;;;;;;5.23;3.33;;;1.90;99.90;;;;;;4977250;28;20191;-87
2024/01/06 03:04:29;;;;;;;6.27;3.40;;;1.90;99.90;;;;;;4976592;28;20181;-87
2024/01/06 03:07:05;;;;;;;6.40;2.60;;;1.90;99.90;;;;;;4976611;28;20184;-87
2024/01/06 03:09:31;;;;;;;4.00;2.97;;;1.90;99.90;;;;;;4977096;28;20180;-87
2024/01/06 03:11:56;;;;;;;5.93;3.30;;;1.90;99.90;;;;;;4994052;28;20235;-87
2024/01/06 03:14:22;;;;;;;4.90;3.00;;;1.90;99.90;;;;;;4976617;28;20652;-87
2024/01/06 03:16:48;;;;;;;5.83;3.07;;;1.90;99.90;;;;;;4993977;28;20203;-87
2024/01/06 03:19:13;;;;;;;5.77;2.93;;;1.90;99.90;;;;;;4976540;28;20211;-87
2024/01/06 03:21:41;;;;;;;7.57;3.47;;;1.80;99.90;;;;;;4976685;28;20246;-87
2024/01/06 03:24:09;;;;;;;8.70;4.50;;;1.70;99.90;;;;;;4976476;28;20644;-86
2024/01/06 03:26:37;;;;;;;6.27;3.03;;;1.60;99.90;;;;;;4976405;28;20184;-87
2024/01/06 03:29:02;;;;;;;4.77;3.17;;;1.60;99.90;;;;;;4976435;28;20180;-85
2024/01/06 03:31:29;;;;;;;7.57;3.03;;;1.70;99.90;;;;;;4976117;28;20243;-85
2024/01/06 03:33:55;;;;;;;4.63;3.40;;;1.70;99.90;;;;;;4976739;28;20561;-85
2024/01/06 03:36:21;;;;;;;10.33;6.63;;;1.80;99.90;;;;;;4976393;28;20191;-85
2024/01/06 03:38:47;;;;;;;11.27;6.23;;;1.80;99.90;;;;;;4976190;28;20207;-85
2024/01/06 03:41:12;;;;;;;8.43;5.20;;;1.80;99.90;;;;;;4976159;28;20235;-85
2024/01/06 03:43:38;;;;;;;10.40;6.10;;;1.80;99.90;;;;;;4976093;28;20196;-85
2024/01/06 03:46:05;;;;;;;9.30;6.20;;;1.80;99.90;;;;;;4976242;28;20220;-85
2024/01/06 03:48:31;;;;;;;11.33;6.17;;;1.80;99.90;;;;;;4976547;28;20262;-85
2024/01/06 03:50:58;;;;;;;10.10;5.30;;;1.90;99.90;;;;;;4977783;28;20282;-85
2024/01/06 03:53:24;;;;;;;8.20;5.43;;;1.90;99.90;;;;;;4980362;28;20204;-84
2024/01/06 03:55:50;;;;;;;10.43;6.17;;;1.90;99.90;;;;;;4980316;28;20184;-84
2024/01/06 03:58:15;;;;;;;8.57;5.70;;;1.90;99.90;;;;;;4979882;28;20200;-84
2024/01/06 04:00:41;;;;;;;13.43;5.83;;;1.90;99.90;;;;;;4980153;28;20192;-84
2024/01/06 04:03:07;;;;;;;8.40;5.30;;;1.90;99.90;;;;;;4980089;28;20599;-84
2024/01/06 04:05:32;;;;;;;6.70;4.40;;;1.90;99.90;;;;;;4979742;28;20176;-84
2024/01/06 04:07:58;;;;;;;7.47;4.20;;;1.90;99.90;;;;;;4980144;28;20187;-84
2024/01/06 04:10:23;;;;;;;6.03;4.50;;;1.80;99.90;;;;;;4979944;28;20238;-84
2024/01/06 04:12:49;;;;;;;9.27;4.60;;;1.80;99.90;;;;;;4979751;28;20180;-84
2024/01/06 04:15:15;;;;;;;6.77;4.93;;;1.90;99.90;;;;;;4979635;28;20187;-84
2024/01/06 04:17:40;;;;;;;5.30;4.30;;;1.90;99.90;;;;;;4979987;28;20189;-84
2024/01/06 04:20:06;;;;;;;6.60;4.50;;;1.80;99.90;;;;;;4979525;28;20223;-84
2024/01/06 04:22:31;;;;;;;8.13;5.27;;;1.80;99.90;;;;;;4979679;28;20180;-84
2024/01/06 04:24:57;;;;;;;12.30;5.67;;;1.70;99.90;;;;;;4979894;28;20173;-84
2024/01/06 04:27:23;;;;;;;8.43;5.27;;;1.70;99.90;;;;;;4979545;28;20526;-84
2024/01/06 04:29:52;;;;;;;6.17;4.13;;;1.70;99.90;;;;;;4979343;28;20204;-84
2024/01/06 04:32:18;;;;;;;7.83;4.30;;;1.70;99.90;;;;;;4979310;28;20191;-84
2024/01/06 04:34:44;;;;;;;8.33;4.97;;;1.70;99.90;;;;;;4979551;28;20267;-84
2024/01/06 04:37:09;;;;;;;8.80;4.80;;;1.80;99.90;;;;;;4979612;28;20188;-85
2024/01/06 04:39:35;;;;;;;9.67;5.80;;;1.80;99.90;;;;;;4979541;28;20295;-85
2024/01/06 04:42:01;;;;;;;8.77;5.83;;;1.80;99.90;;;;;;4979086;28;20176;-85
2024/01/06 04:44:26;;;;;;;8.87;5.93;;;1.80;99.90;;;;;;4979338;28;20277;-85
2024/01/06 04:46:52;;;;;;;8.57;5.70;;;1.80;99.90;;;;;;4978914;28;20176;-85
2024/01/06 04:49:17;;;;;;;6.70;5.40;;;1.90;99.90;;;;;;4978971;28;20184;-85
2024/01/06 04:51:43;;;;;;;8.13;5.23;;;1.90;99.90;;;;;;4979543;28;20199;-85
2024/01/06 04:54:08;;;;;;;8.53;5.67;;;1.90;99.90;;;;;;4978904;28;20191;-85
2024/01/06 04:56:34;;;;;;;10.27;6.13;;;1.90;99.90;;;;;;4978854;28;20181;-85
2024/01/06 04:58:59;;;;;;;9.10;5.10;;;1.90;99.90;;;;;;4978753;28;20286;-85
2024/01/06 05:01:25;;;;;;;6.50;5.13;;;1.90;99.90;;;;;;4978677;28;20192;-85
2024/01/06 05:03:51;;;;;;;7.33;5.17;;;1.90;99.90;;;;;;4978739;28;20180;-85
2024/01/06 05:06:16;;;;;;;6.83;5.07;;;2.00;99.90;;;;;;4978613;28;20296;-85
2024/01/06 05:08:44;;;;;;;7.13;5.80;;;2.00;99.90;;;;;;4978558;28;20191;-85
2024/01/06 05:11:10;;;;;;;8.23;5.60;;;2.00;99.90;;;;;;4995871;28;20192;-85
2024/01/06 05:13:36;;;;;;;7.00;5.27;;;2.10;99.90;;;;;;4978498;28;20180;-85
2024/01/06 05:16:02;;;;;;;6.93;4.70;;;2.10;99.90;;;;;;4979046;28;20199;-85
2024/01/06 05:18:27;;;;;;;7.20;4.90;;;2.10;99.90;;;;;;4978306;28;20212;-85
2024/01/06 05:20:54;;;;;;;6.43;4.73;;;2.20;99.90;;;;;;4978588;28;20292;-85
2024/01/06 05:23:19;;;;;;;8.27;5.67;;;2.20;99.90;;;;;;4978241;28;20597;-85
2024/01/06 05:25:45;;;;;;;8.60;4.97;;;2.30;99.90;;;;;;4978422;28;20178;-85
2024/01/06 05:28:11;;;;;;;5.50;4.27;;;2.30;99.90;;;;;;4978192;28;20191;-85
2024/01/06 05:30:36;;;;;;;6.97;4.10;;;2.20;99.90;;;;;;4978432;28;20207;-85
2024/01/06 05:33:03;;;;;;;9.57;4.67;;;2.20;99.90;;;;;;4978388;28;20224;-85
2024/01/06 05:35:29;;;;;;;6.27;4.27;;;2.20;99.90;;;;;;4978110;28;20200;-85
2024/01/06 05:37:54;;;;;;;6.07;4.60;;;2.20;99.90;;;;;;4977895;28;20230;-85
2024/01/06 05:40:20;;;;;;;8.20;4.90;;;2.20;99.90;;;;;;4978996;28;20204;-85
2024/01/06 05:42:45;;;;;;;6.23;4.23;;;2.30;99.90;;;;;;4978129;28;20204;-84
2024/01/06 05:45:14;;;;;;;7.57;4.50;;;2.30;99.90;;;;;;4977870;28;20271;-84
2024/01/06 05:47:40;;;;;;;6.90;4.80;;;2.30;99.90;;;;;;4978257;28;20184;-84
2024/01/06 05:50:09;;;;;;;8.07;4.83;;;2.40;99.90;;;;;;4977934;28;20200;-84
2024/01/06 05:52:34;;;;;;;8.17;5.10;;;2.40;99.90;;;;;;4977795;28;20180;-84
2024/01/06 05:55:00;;;;;;;12.10;5.10;;;2.40;99.90;;;;;;4977854;28;20191;-85
2024/01/06 05:57:25;;;;;;;7.03;4.53;;;2.40;99.90;;;;;;4977971;28;20184;-85
2024/01/06 05:59:51;;;;;;;7.00;4.50;;;2.40;99.90;;;;;;4977818;28;20575;-85
2024/01/06 06:02:16;;;;;;;9.83;5.00;;;2.40;99.90;;;;;;4977628;28;20180;-84
2024/01/06 06:04:42;;;;;;;6.97;4.90;;;2.40;99.90;;;;;;4977926;28;20191;-84
2024/01/06 06:07:08;;;;;;;5.83;5.17;;;2.40;99.90;;;;;;4977889;28;20243;-85
2024/01/06 06:09:34;;;;;;;15.57;9.00;;;2.20;99.90;;;;;;4977516;28;20192;-85
2024/01/06 06:12:00;;;;;;;9.63;6.37;;;2.30;99.90;;;;;;4977855;28;20271;-85
2024/01/06 06:14:26;;;;;;;8.10;5.50;;;2.30;99.90;;;;;;4976675;28;20282;-84
2024/01/06 06:16:51;;;;;;;10.10;5.43;;;2.40;99.90;;;;;;4977281;28;20657;-85
2024/01/06 06:19:18;;;;;;;10.10;6.00;;;2.40;99.90;;;;;;4976378;28;20210;-85
2024/01/06 06:21:44;;;;;;;7.63;5.70;;;2.40;99.90;;;;;;4977111;28;20569;-85
2024/01/06 06:24:09;;;;;;;8.03;5.70;;;2.40;99.90;;;;;;4977086;28;20180;-85
2024/01/06 06:26:35;;;;;;;6.40;5.70;;;2.40;99.90;;;;;;4977370;28;20267;-85
2024/01/06 06:29:01;;;;;;;8.37;5.47;;;2.50;99.90;;;;;;4977477;28;20188;-85
2024/01/06 06:31:26;;;;;;;8.23;5.10;;;2.50;99.90;;;;;;4976934;28;20208;-85
2024/01/06 06:33:52;;;;;;;6.30;5.30;;;2.50;99.90;;;;;;4977236;28;20192;-85
2024/01/06 06:36:18;;;;;;;7.80;5.70;;;2.50;99.90;;;;;;4977451;28;20183;-85
2024/01/06 06:38:43;;;;;;;6.60;5.27;;;2.60;99.90;;;;;;4976783;28;20207;-85
2024/01/06 06:41:09;;;;;;;9.30;5.73;;;2.60;99.90;;;;;;4977434;28;20200;-84
2024/01/06 06:43:34;;;;;;;8.90;7.00;;;2.60;99.90;;;;;;4976720;28;20255;-84
2024/01/06 06:46:00;;;;;;;7.80;6.80;;;2.60;99.90;;;;;;5009509;28;20188;-85
2024/01/06 06:48:26;;;;;;;10.73;7.50;;;2.70;99.90;;;;;;4977272;28;20191;-85
2024/01/06 06:50:51;;;;;;;8.63;6.67;;;2.70;99.90;;;;;;4976641;28;20200;-85
2024/01/06 06:53:17;;;;;;;11.23;6.97;;;2.60;99.90;;;;;;4977118;28;20184;-85
2024/01/06 06:55:43;;;;;;;11.80;7.83;;;2.60;99.90;;;;;;4976994;28;20191;-84
2024/01/06 06:58:09;;;;;;;11.90;9.90;;;2.60;99.90;;;;;;4976669;28;20326;-84
2024/01/06 07:00:35;;;;;;;13.37;11.97;;;2.60;99.90;;;;;;4976942;28;20660;-84
2024/01/06 07:03:01;;;;;;;11.30;10.10;;;2.70;99.90;;;;;;4976654;28;20184;-84
2024/01/06 07:05:26;;;;;;;17.33;13.40;;;2.70;99.90;;;;;;4976918;28;20184;-84
2024/01/06 07:07:52;;;;;;;15.47;11.13;;;2.70;99.90;;;;;;4977017;28;20272;-84
2024/01/06 07:10:18;;;;;;;14.03;10.30;;;2.70;99.90;;;;;;4976764;28;20200;-84
2024/01/06 07:12:43;;;;;;;13.53;10.40;;;2.70;99.90;;;;;;4976960;28;20628;-84
2024/01/06 07:15:10;;;;;;;17.13;10.93;;;2.80;99.90;;;;;;4976454;28;20185;-85
2024/01/06 07:17:36;;;;;;;15.37;11.70;;;2.80;99.90;;;;;;4976856;28;20184;-85
2024/01/06 07:20:02;;;;;;;14.40;11.17;;;2.80;99.90;;;;;;4976526;28;20277;-85
2024/01/06 07:22:27;;;;;;;15.93;12.00;;;2.80;99.90;;;;;;4976794;28;20176;-85
2024/01/06 07:24:53;;;;;;;20.03;15.70;;;2.80;99.90;;;;;;4978157;28;20188;-85
2024/01/06 07:27:19;;;;;;;20.67;17.37;;;2.80;99.90;;;;;;4980612;28;20180;-86
2024/01/06 07:29:45;;;;;;;24.87;18.67;;;2.90;99.90;;;;;;4980628;28;20215;-85
2024/01/06 07:32:10;;;;;;;25.27;19.50;;;2.90;99.90;;;;;;4980696;28;20660;-85
2024/01/06 07:34:36;;;;;;;22.20;15.53;;;3.00;99.90;;;;;;4980316;28;20184;-85
2024/01/06 07:37:02;;;;;;;13.23;11.47;;;3.10;99.90;;;;;;4980617;28;20184;-85
2024/01/06 07:39:27;;;;;;;16.90;13.13;;;3.00;99.90;;;;;;4980218;28;20306;-84
2024/01/06 07:41:53;;;;;;;19.80;13.13;;;3.00;99.90;;;;;;4980416;28;20172;-85
2024/01/06 07:44:24;;;;;;;15.87;12.57;;;3.00;99.90;;;;;;4979967;28;20234;-85
2024/01/06 07:46:50;;;;;;;17.33;12.67;;;3.00;99.90;;;;;;4996794;28;20195;-84
2024/01/06 07:49:16;;;;;;;15.03;9.87;;;3.10;99.90;;;;;;4980363;28;20703;-85
2024/01/06 07:51:42;;;;;;;12.23;9.70;;;3.10;99.90;;;;;;4980198;28;20204;-85
2024/01/06 07:54:08;;;;;;;10.77;9.13;;;3.20;99.90;;;;;;4980241;28;20214;-85
2024/01/06 07:56:34;;;;;;;12.43;9.03;;;3.30;99.90;;;;;;4979889;28;20188;-85
2024/01/06 07:59:01;;;;;;;10.53;8.70;;;3.30;99.90;;;;;;4980320;28;20307;-85
2024/01/06 08:01:27;;;;;;;11.60;8.83;;;3.40;99.90;;;;;;4979776;28;20192;-84
2024/01/06 08:03:52;;;;;;;12.00;8.23;;;3.40;99.90;;;;;;4980096;28;20677;-85
2024/01/06 08:06:18;;;;;;;13.03;8.30;;;3.50;99.90;;;;;;4980183;28;20183;-85
2024/01/06 08:08:45;;;;;;;11.57;8.93;;;3.50;99.90;;;;;;4980103;28;20183;-86
2024/01/06 08:11:11;;;;;;;11.70;8.07;;;3.50;99.90;;;;;;4979534;28;20244;-86
2024/01/06 08:13:37;;;;;;;10.77;7.80;;;3.50;99.90;;;;;;4979507;28;20212;-85
2024/01/06 08:16:02;;;;;;;9.87;8.13;;;3.50;99.90;;;;;;4980025;28;20195;-85
2024/01/06 08:18:32;;;;;;;10.83;8.20;;;3.50;99.90;;;;;;4979872;28;20254;-85
2024/01/06 08:20:58;;;;;;;10.17;8.90;;;3.60;99.90;;;;;;4979362;28;20761;-85
2024/01/06 08:23:24;;;;;;;12.27;10.43;;;3.60;99.90;;;;;;4979951;28;20197;-84
2024/01/06 08:25:49;;;;;;;14.10;10.10;;;3.60;99.90;;;;;;4979531;28;20176;-85
2024/01/06 08:28:16;;;;;;;12.83;10.80;;;3.60;99.90;;;;;;4997276;28;20177;-86
2024/01/06 08:31:12;;;;;;;12.93;9.80;;;3.60;99.90;;;;;;4979322;28;20208;-86
2024/01/06 08:33:42;;;;;;;12.80;10.53;;;3.70;99.90;;;;;;4979415;28;20351;-85
2024/01/06 08:36:13;;;;;;;12.30;9.97;;;3.70;99.90;;;;;;4978937;28;20181;-85
2024/01/06 08:38:43;;;;;;;12.03;9.23;;;3.70;99.90;;;;;;4979110;28;20303;-86
2024/01/06 08:41:09;;;;;;;13.07;10.97;;;3.70;99.90;;;;;;4979647;28;20200;-86
2024/01/06 08:43:34;;;;;;;11.60;9.50;;;3.80;99.90;;;;;;4979202;28;20200;-87
2024/01/06 08:46:26;;;;;;;11.57;8.07;;;3.80;99.90;;;;;;4980290;28;20168;-85
2024/01/06 08:48:51;;;;;;;10.47;8.47;;;3.90;99.90;;;;;;5011971;28;20262;-85
2024/01/06 08:51:17;;;;;;;10.03;7.70;;;3.90;99.90;;;;;;4978823;28;20208;-85
2024/01/06 08:53:42;;;;;;;10.40;6.77;;;4.00;99.90;;;;;;4978917;28;20199;-85
2024/01/06 08:56:09;;;;;;;16.00;8.50;;;4.10;99.90;;;;;;4978583;28;20190;-85
2024/01/06 08:58:34;;;;;;;32.27;22.20;;;4.00;99.90;;;;;;4979032;28;20214;-85
2024/01/06 09:01:00;;;;;;;15.63;12.87;;;4.00;99.90;;;;;;4979007;28;20639;-85
2024/01/06 09:03:25;;;;;;;11.87;8.23;;;4.00;99.90;;;;;;4979346;28;20208;-85
2024/01/06 09:05:57;;;;;;;12.50;9.03;;;4.10;99.90;;;;;;4978570;28;20180;-83
2024/01/06 09:08:24;;;;;;;9.43;7.37;;;4.10;99.90;;;;;;4979607;28;20188;-84
2024/01/06 09:10:51;;;;;;;7.83;7.03;;;4.00;99.90;;;;;;4995845;28;20287;-84
2024/01/06 09:13:17;;;;;;;10.93;7.03;;;4.00;99.90;;;;;;4978794;28;20203;-83
2024/01/06 09:15:43;;;;;;;8.13;6.37;;;4.00;99.90;;;;;;4978494;28;20192;-83
2024/01/06 09:18:10;;;;;;;7.53;6.40;;;3.90;99.90;;;;;;4978582;28;20708;-84
2024/01/06 09:20:36;;;;;;;10.70;7.50;;;3.90;99.90;;;;;;4978707;28;20206;-84
2024/01/06 09:23:02;;;;;;;14.07;7.33;;;3.90;99.90;;;;;;4978648;28;20270;-84
2024/01/06 09:25:27;;;;;;;10.83;7.57;;;3.90;99.90;;;;;;4978111;28;20180;-84
2024/01/06 09:27:53;;;;;;;14.70;9.07;;;3.90;99.90;;;;;;4978360;28;20238;-84
2024/01/06 09:30:18;;;;;;;10.60;7.47;;;4.00;99.90;;;;;;4978077;28;20208;-84
2024/01/06 09:32:44;;;;;;;12.57;9.37;;;4.10;99.90;;;;;;4978213;28;20180;-84
2024/01/06 09:35:10;;;;;;;12.27;9.73;;;4.10;99.90;;;;;;4977810;28;20216;-84
2024/01/06 09:37:36;;;;;;;13.00;10.10;;;4.20;99.90;;;;;;4978226;28;20176;-84
2024/01/06 09:40:01;;;;;;;15.67;9.37;;;4.30;99.90;;;;;;4978163;28;20219;-84
2024/01/06 09:42:27;;;;;;;16.17;13.27;;;4.40;99.90;;;;;;4977686;28;20184;-83
2024/01/06 09:44:53;;;;;;;14.83;12.37;;;4.50;99.90;;;;;;4977914;28;20195;-84
2024/01/06 09:47:19;;;;;;;18.00;11.60;;;4.60;99.90;;;;;;4977069;28;20188;-84
2024/01/06 09:49:50;;;;;;;10.83;9.53;;;4.70;99.90;;;;;;4977089;28;20204;-83
2024/01/06 09:52:19;;;;;;;12.93;8.60;;;4.80;99.90;;;;;;4977794;28;20187;-83
2024/01/06 09:54:52;;;;;;;9.57;7.90;;;4.80;99.90;;;;;;4977861;28;20187;-83
2024/01/06 09:57:18;;;;;;;10.17;8.37;;;5.00;99.90;;;;;;4978690;28;20184;-83
2024/01/06 09:59:47;;;;;;;10.00;8.23;;;4.90;99.90;;;;;;4977436;28;20204;-83
2024/01/06 10:02:16;;;;;;;10.20;8.00;;;4.90;99.90;;;;;;4977796;28;20191;-85
2024/01/06 10:04:43;;;;;;;10.27;7.90;;;4.80;99.90;;;;;;4977427;28;20202;-87
2024/01/06 10:07:12;;;;;;;10.33;8.10;;;4.80;99.90;;;;;;4977314;28;20184;-84
2024/01/06 10:09:38;;;;;;;13.43;9.57;;;4.70;99.90;;;;;;4977247;28;20218;-84
2024/01/06 10:12:04;;;;;;;14.43;10.07;;;4.60;99.90;;;;;;4977396;28;20219;-84
2024/01/06 10:14:30;;;;;;;11.40;8.97;;;4.50;99.90;;;;;;4977485;28;20227;-84
2024/01/06 10:16:56;;;;;;;11.80;9.53;;;4.40;99.90;;;;;;4977349;28;20230;-84
2024/01/06 10:19:23;;;;;;;11.13;9.23;;;4.40;99.90;;;;;;4977071;28;20290;-84
2024/01/06 10:21:49;;;;;;;15.20;10.90;;;4.40;99.90;;;;;;4977866;28;20184;-84
2024/01/06 10:24:18;;;;;;;12.43;10.30;;;4.40;99.90;;;;;;4977752;28;20184;-84
2024/01/06 10:26:48;;;;;;;14.67;9.90;;;4.40;99.90;;;;;;4977259;28;20199;-84
2024/01/06 10:29:14;;;;;;;10.00;8.70;;;4.60;99.90;;;;;;4977085;28;20204;-84
2024/01/06 10:31:41;;;;;;;9.13;7.53;;;4.60;99.90;;;;;;4977768;28;20290;-84
2024/01/06 10:34:06;;;;;;;10.77;7.43;;;4.60;99.90;;;;;;4977413;28;20187;-84
2024/01/06 10:36:32;;;;;;;10.83;6.63;;;4.70;99.90;;;;;;4977133;28;20279;-84
2024/01/06 10:38:58;;;;;;;7.77;6.70;;;4.80;99.90;;;;;;4977155;28;20204;-84
2024/01/06 10:41:25;;;;;;;10.93;6.90;;;4.90;99.90;;;;;;4977120;28;20636;-84
2024/01/06 10:43:51;;;;;;;10.80;6.43;;;5.00;99.90;;;;;;4994361;28;20187;-84
2024/01/06 10:46:19;;;;;;;11.53;7.07;;;5.10;99.90;;;;;;4976589;28;20555;-83
2024/01/06 10:48:46;;;;;;;114.00;52.93;;;5.20;99.90;;;;;;4994225;28;20598;-84
2024/01/06 10:51:13;;;;;;;16.33;9.00;;;5.40;99.90;;;;;;4976863;28;20251;-84
2024/01/06 10:53:41;;;;;;;14.50;8.93;;;5.50;99.90;;;;;;4993986;28;20180;-83
2024/01/06 10:56:07;;;;;;;13.67;8.63;;;5.50;99.90;;;;;;4976706;28;20188;-83
2024/01/06 10:58:38;;;;;;;14.47;9.53;;;5.60;99.90;;;;;;4976815;28;20208;-83
2024/01/06 11:01:03;;;;;;;11.07;9.20;;;5.50;99.90;;;;;;4976352;28;20204;-83
2024/01/06 11:03:30;;;;;;;10.73;8.67;;;5.50;99.90;;;;;;4976589;28;20172;-83
2024/01/06 11:05:57;;;;;;;11.23;7.67;;;5.50;99.90;;;;;;4976901;28;20266;-84
2024/01/06 11:08:25;;;;;;;13.03;7.37;;;5.40;99.90;;;;;;4976684;28;20179;-84
2024/01/06 11:10:55;;;;;;;12.27;8.80;;;5.40;99.90;;;;;;4971658;28;20248;-83
2024/01/06 11:13:25;;;;;;;14.93;10.50;;;5.30;99.90;;;;;;4974540;28;20279;-83
2024/01/06 11:16:07;;;;;;;8.67;7.53;;;5.40;99.90;;;;;;4975763;28;20199;-83
2024/01/06 11:18:40;;;;;;;11.40;7.87;;;5.50;99.90;;;;;;4970812;28;20212;-83
2024/01/06 11:21:45;;;;;;;9.23;7.23;;;5.70;99.90;;;;;;4972046;28;20274;-83
2024/01/06 11:24:06;;;;;;;12.37;6.83;;;5.80;99.90;;;;;;4992513;28;20541;-83
2024/01/06 11:26:40;;;;;;;9.33;7.33;;;5.90;99.90;;;;;;4976153;28;20227;-83
2024/01/06 11:29:13;;;;;;;9.67;6.63;;;6.00;99.90;;;;;;4976349;28;20208;-84
2024/01/06 11:31:38;;;;;;;11.83;6.53;;;6.00;99.90;;;;;;4976008;28;20284;-83
2024/01/06 11:34:21;;;;;;;12.87;7.07;;;5.90;99.90;;;;;;4975975;28;20222;-83
2024/01/06 11:36:48;;;;;;;9.00;6.00;;;5.90;99.90;;;;;;4975957;28;20184;-84
2024/01/06 11:39:50;;;;;;;10.27;7.97;;;5.80;99.90;;;;;;4976951;28;20211;-84
2024/01/06 11:42:15;;;;;;;9.50;6.67;;;5.70;99.90;;;;;;4898782;29;20194;-84
2024/01/06 11:44:49;;;;;;;10.83;8.00;;;5.60;99.90;;;;;;4960913;28;20268;-84
2024/01/06 11:50:49;;;;;;;10.87;6.80;;;5.50;99.90;;;;;;4993799;28;20202;-85
2024/01/06 11:53:21;;;;;;;10.50;6.90;;;5.30;99.90;;;;;;4977192;28;20235;-85
2024/01/06 11:55:52;;;;;;;9.97;6.80;;;5.30;99.90;;;;;;4976803;28;20178;-86
2024/01/06 11:58:21;;;;;;;12.83;7.30;;;5.30;99.90;;;;;;4979451;28;20204;-84
2024/01/06 12:00:56;;;;;;;9.27;6.40;;;5.40;99.90;;;;;;4979973;28;20227;-84
2024/01/06 12:03:36;;;;;;;8.53;6.20;;;5.40;99.90;;;;;;4979098;28;20179;-85
2024/01/06 12:06:02;;;;;;;10.77;7.20;;;5.60;99.90;;;;;;4978229;28;20177;-86
2024/01/06 12:08:29;;;;;;;11.30;7.00;;;5.70;99.90;;;;;;4976220;28;20180;-85
2024/01/06 12:11:18;;;;;;;9.30;6.87;;;5.90;99.90;;;;;;4994167;28;20196;-87
2024/01/06 12:13:44;;;;;;;9.50;6.30;;;5.90;99.90;;;;;;4979710;28;20214;-87
2024/01/06 12:16:10;;;;;;;12.03;9.97;;;6.00;99.90;;;;;;4981367;28;20183;-83
2024/01/06 12:18:36;;;;;;;10.98;8.98;;;6.00;99.90;;;;;;4983638;28;20262;-84
2024/01/06 12:21:04;;;;;;;11.80;7.70;;;6.00;99.90;;;;;;4982214;28;20295;-85
2024/01/06 12:23:30;;;;;;;10.82;7.63;;;5.80;99.90;;;;;;4980511;28;20180;-84
2024/01/06 12:25:56;;;;;;;11.07;7.00;;;5.80;99.90;;;;;;4979847;28;20176;-86
2024/01/06 12:28:23;;;;;;;12.03;7.77;;;5.70;99.90;;;;;;4997415;28;20184;-85
2024/01/06 12:30:48;;;;;;;11.43;6.93;;;5.70;99.90;;;;;;4979873;28;20204;-85
2024/01/06 12:33:14;;;;;;;11.47;7.43;;;5.70;99.90;;;;;;4980337;28;20211;-87
2024/01/06 12:35:41;;;;;;;10.27;6.93;;;5.70;99.90;;;;;;4979734;28;20180;-84
2024/01/06 12:38:09;;;;;;;8.43;7.03;;;5.70;99.90;;;;;;4979485;28;20268;-87
2024/01/06 12:40:38;;;;;;;9.82;6.97;;;5.70;99.90;;;;;;4978948;28;20200;-84
2024/01/06 12:43:05;;;;;;;11.27;7.07;;;5.90;99.90;;;;;;4979374;28;20207;-84
2024/01/06 12:45:31;;;;;;;10.23;7.17;;;5.90;99.90;;;;;;4979038;28;20215;-84
2024/01/06 12:47:56;;;;;;;8.00;6.60;;;5.90;99.90;;;;;;4979281;28;20211;-84
2024/01/06 12:50:22;;;;;;;8.63;6.70;;;5.90;99.90;;;;;;4979213;28;20200;-84
2024/01/06 12:52:47;;;;;;;7.00;5.63;;;5.90;99.90;;;;;;4979119;28;20184;-84
2024/01/06 12:55:13;;;;;;;10.10;6.53;;;5.90;99.90;;;;;;4975182;28;20191;-84
2024/01/06 12:57:39;;;;;;;8.67;6.33;;;6.10;99.90;;;;;;4979037;28;20181;-84
2024/01/06 13:00:14;;;;;;;8.10;5.70;;;6.20;99.90;;;;;;4976638;28;20208;-84
2024/01/06 13:02:40;;;;;;;6.60;5.87;;;6.30;99.90;;;;;;4986681;28;20241;-84
2024/01/06 13:05:06;;;;;;;8.18;5.78;;;6.30;99.90;;;;;;4988479;28;20188;-84
2024/01/06 13:07:40;;;;;;;8.27;6.60;;;6.30;99.90;;;;;;4978792;28;20216;-84
2024/01/06 13:10:10;;;;;;;8.87;7.30;;;6.40;99.90;;;;;;4974267;28;20747;-83
2024/01/06 13:41:40;;;;;;;14.95;8.10;;;6.30;99.90;;;;;;3266555;22;20486;-80
2024/01/06 13:44:14;;;;;;;12.65;8.07;;;6.20;99.90;;;;;;4976689;28;20707;-84
2024/01/06 13:46:44;;;;;;;8.85;7.82;;;6.10;99.90;;;;;;4977977;28;20208;-85
2024/01/06 13:49:13;;;;;;;9.52;6.90;;;6.10;99.90;;;;;;4978410;28;20180;-85
2024/01/06 13:51:40;;;;;;;9.05;8.02;;;6.10;99.90;;;;;;4978382;28;20211;-85
2024/01/06 13:54:09;;;;;;;10.02;8.48;;;6.20;99.90;;;;;;4978894;28;20184;-84
2024/01/06 13:56:35;;;;;;;7.32;6.32;;;6.20;99.90;;;;;;4979034;28;20715;-85
2024/01/06 13:59:01;;;;;;;11.77;7.35;;;6.20;99.90;;;;;;4978431;28;20212;-85
2024/01/06 14:01:26;;;;;;;9.88;7.47;;;6.20;99.90;;;;;;4978326;28;20180;-85
2024/01/06 14:03:57;;;;;;;8.98;8.05;;;6.20;99.90;;;;;;4978085;28;20211;-85